createdAt,value
2022-08-05T00:01:36.570Z,100723.75
2022-08-05T00:04:17.825Z,100730.28
2022-08-05T00:06:47.084Z,100721.66
2022-08-05T00:09:15.746Z,100729.06
2022-08-05T00:11:49.525Z,100719.81
2022-08-05T00:14:29.295Z,100729.63
2022-08-05T00:17:02.094Z,100723.28
2022-08-05T00:19:33.385Z,100724.47
2022-08-05T00:22:11.512Z,100731.34
2022-08-05T00:24:42.398Z,100730.13
2022-08-05T00:27:16.600Z,100734.22
2022-08-05T00:29:44.873Z,100726.31
2022-08-05T00:32:15.015Z,100726.59
2022-08-05T00:35:03.480Z,100723.63
2022-08-05T00:37:51.018Z,100723.00
2022-08-05T00:40:27.252Z,100721.75
2022-08-05T00:43:01.030Z,100720.38
2022-08-05T00:45:43.194Z,100726.47
2022-08-05T00:48:13.450Z,100738.91
2022-08-05T00:50:44.323Z,100729.00
2022-08-05T00:54:00.520Z,100730.34
2022-08-05T00:56:05.686Z,100736.44
2022-08-05T00:58:37.107Z,100722.00
2022-08-05T01:01:05.904Z,100731.75
2022-08-05T01:03:38.055Z,100726.38
2022-08-05T01:06:14.184Z,100734.91
2022-08-05T01:08:44.842Z,100740.44
2022-08-05T01:11:22.473Z,100731.69
2022-08-05T01:14:15.240Z,100739.16
2022-08-05T01:16:52.542Z,100744.13
2022-08-05T01:19:36.715Z,100748.88
2022-08-05T01:22:28.544Z,100748.50
2022-08-05T01:25:17.527Z,100755.03
2022-08-05T01:28:03.342Z,100751.34
2022-08-05T01:30:36.810Z,100749.66
2022-08-05T01:33:08.636Z,100755.94
2022-08-05T01:35:50.810Z,100755.94
2022-08-05T01:38:24.885Z,100760.47
2022-08-05T01:41:01.340Z,100766.28
2022-08-05T01:43:31.300Z,100756.53
2022-08-05T01:46:07.096Z,100756.25
2022-08-05T01:48:49.561Z,100756.44
2022-08-05T01:51:19.193Z,100758.25
2022-08-05T01:53:56.898Z,100757.09
2022-08-05T01:58:18.879Z,100762.41
2022-08-05T01:59:23.825Z,100768.19
2022-08-05T02:01:57.775Z,100766.47
2022-08-05T02:04:29.240Z,100758.81
2022-08-05T02:06:59.130Z,100753.41
2022-08-05T02:09:27.480Z,100751.16
2022-08-05T02:12:05.178Z,100753.69
2022-08-05T02:14:37.529Z,100759.22
2022-08-05T02:17:16.863Z,100763.16
2022-08-05T02:20:03.099Z,100755.19
2022-08-05T02:22:36.530Z,100761.41
2022-08-05T02:25:19.576Z,100762.56
2022-08-05T02:27:59.905Z,100764.41
2022-08-05T02:30:34.440Z,100764.00
2022-08-05T02:33:04.983Z,100753.25
2022-08-05T02:35:38.609Z,100751.94
2022-08-05T02:38:19.285Z,100758.81
2022-08-05T02:40:47.682Z,100755.25
2022-08-05T02:43:18.342Z,100749.47
2022-08-05T02:45:52.259Z,100751.31
2022-08-05T02:48:29.159Z,100751.41
2022-08-05T02:53:39.406Z,100749.66
2022-08-05T02:58:43.695Z,100748.56
2022-08-05T03:01:17.488Z,100750.31
2022-08-05T03:04:02.162Z,100750.13
2022-08-05T03:06:54.114Z,100749.84
2022-08-05T03:09:27.217Z,100753.66
2022-08-05T03:12:07.881Z,100750.59
2022-08-05T03:14:45.563Z,100743.81
2022-08-05T03:17:13.878Z,100740.56
2022-08-05T03:19:42.300Z,100747.47
2022-08-05T03:22:16.380Z,100740.13
2022-08-05T03:24:50.733Z,100747.19
2022-08-05T03:27:20.662Z,100742.91
2022-08-05T03:30:08.333Z,100739.25
2022-08-05T03:32:37.972Z,100735.94
2022-08-05T03:35:06.367Z,100737.16
2022-08-05T03:37:40.982Z,100733.47
2022-08-05T03:40:31.453Z,100735.94
2022-08-05T03:43:15.884Z,100729.72
2022-08-05T03:45:55.232Z,100735.47
2022-08-05T03:48:30.741Z,100732.56
2022-08-05T03:52:38.380Z,100735.63
2022-08-05T03:55:52.656Z,100736.66
2022-08-05T03:57:29.058Z,100739.84
2022-08-05T04:00:15.820Z,100731.59
2022-08-05T04:02:52.044Z,100732.66
2022-08-05T04:05:33.711Z,100733.00
2022-08-05T04:08:05.717Z,100736.06
2022-08-05T04:10:45.234Z,100735.34
2022-08-05T04:13:13.564Z,100733.41
2022-08-05T04:16:02.702Z,100737.78
2022-08-05T04:18:29.095Z,100739.44
2022-08-05T04:20:58.183Z,100730.69
2022-08-05T04:24:05.273Z,100740.78
2022-08-05T04:26:17.344Z,100743.44
2022-08-05T04:28:51.177Z,100735.16
2022-08-05T04:31:20.486Z,100733.63
2022-08-05T04:34:17.450Z,100722.53
2022-08-05T04:36:44.874Z,100728.25
2022-08-05T04:39:14.695Z,100729.06
2022-08-05T04:41:42.327Z,100727.22
2022-08-05T04:44:11.818Z,100724.53
2022-08-05T04:46:39.526Z,100719.78
2022-08-05T04:49:12.373Z,100722.47
2022-08-05T04:51:45.610Z,100721.97
2022-08-05T04:54:14.893Z,100722.84
2022-08-05T04:56:43.683Z,100725.16
2022-08-05T04:59:14.034Z,100726.22
2022-08-05T05:02:35.401Z,100722.69
2022-08-05T05:04:47.489Z,100715.88
2022-08-05T05:07:17.682Z,100719.56
2022-08-05T05:09:45.640Z,100718.56
2022-08-05T05:12:13.450Z,100718.94
2022-08-05T05:14:50.550Z,100711.44
2022-08-05T05:17:23.862Z,100720.13
2022-08-05T05:19:56.490Z,100718.66
2022-08-05T05:22:26.734Z,100722.63
2022-08-05T05:24:58.341Z,100721.31
2022-08-05T05:27:45.912Z,100726.59
2022-08-05T05:30:31.203Z,100723.22
2022-08-05T05:33:09.113Z,100724.94
2022-08-05T05:35:48.262Z,100725.44
2022-08-05T05:38:22.736Z,100717.13
2022-08-05T05:40:56.377Z,100722.22
2022-08-05T05:43:54.129Z,100718.69
2022-08-05T05:46:17.442Z,100731.81
2022-08-05T05:48:47.996Z,100734.66
2022-08-05T05:51:24.358Z,100723.78
2022-08-05T05:53:58.679Z,100728.31
2022-08-05T05:56:33.396Z,100739.13
2022-08-05T05:59:05.434Z,100737.59
2022-08-05T06:01:37.923Z,100745.34
2022-08-05T06:04:08.245Z,100749.66
2022-08-05T06:06:41.774Z,100741.41
2022-08-05T06:09:16.684Z,100745.31
2022-08-05T06:11:59.553Z,100748.41
2022-08-05T06:14:34.860Z,100741.00
2022-08-05T06:17:24.300Z,100739.19
2022-08-05T06:19:56.958Z,100747.47
2022-08-05T06:22:33.598Z,100737.19
2022-08-05T06:25:59.523Z,100744.28
2022-08-05T06:28:12.551Z,100753.78
2022-08-05T06:30:43.615Z,100752.09
2022-08-05T06:33:11.282Z,100754.78
2022-08-05T06:36:06.806Z,100754.47
2022-08-05T06:38:36.721Z,100746.72
2022-08-05T06:41:08.230Z,100732.03
2022-08-05T06:43:57.835Z,100738.81
2022-08-05T06:46:30.268Z,100729.31
2022-08-05T06:49:00.974Z,100740.09
2022-08-05T06:51:31.021Z,100737.19
2022-08-05T06:54:03.938Z,100748.13
2022-08-05T06:56:34.455Z,100747.94
2022-08-05T06:59:08.332Z,100752.88
2022-08-05T07:01:40.820Z,100754.75
2022-08-05T07:04:10.826Z,100762.84
2022-08-05T07:06:42.689Z,100758.47
2022-08-05T07:09:10.505Z,100769.25
2022-08-05T07:11:39.993Z,100758.22
2022-08-05T07:14:29.538Z,100751.59
2022-08-05T07:18:02.422Z,100747.75
2022-08-05T07:20:31.536Z,100748.22
2022-08-05T07:22:38.893Z,100730.06
2022-08-05T07:25:22.023Z,100729.19
2022-08-05T07:27:57.586Z,100727.41
2022-08-05T07:30:31.876Z,100735.06
2022-08-05T07:33:05.479Z,100732.50
2022-08-05T07:36:03.643Z,100728.31
2022-08-05T07:38:33.446Z,100737.41
2022-08-05T07:42:07.027Z,100736.75
2022-08-05T07:43:57.974Z,100732.28
2022-08-05T07:46:31.886Z,100728.72
2022-08-05T07:49:05.902Z,100736.78
2022-08-05T07:51:40.856Z,100733.97
2022-08-05T07:54:18.746Z,100738.88
2022-08-05T07:57:01.879Z,100730.31
2022-08-05T07:59:40.198Z,100732.66
2022-08-05T08:02:16.744Z,100735.88
2022-08-05T08:04:47.443Z,100739.06
2022-08-05T08:07:15.546Z,100747.13
2022-08-05T08:09:43.709Z,100746.41
2022-08-05T08:12:35.182Z,100762.97
2022-08-05T08:15:03.506Z,100768.28
2022-08-05T08:17:33.060Z,100774.25
2022-08-05T08:20:43.507Z,100766.81
2022-08-05T08:23:03.124Z,100791.78
2022-08-05T08:26:00.163Z,100800.91
2022-08-05T08:28:36.311Z,100772.22
2022-08-05T08:31:08.747Z,100761.25
2022-08-05T08:33:38.008Z,100762.16
2022-08-05T08:38:56.118Z,100750.72
2022-08-05T08:41:52.656Z,100747.53
2022-08-05T08:45:20.003Z,100737.84
2022-08-05T08:47:47.198Z,100724.75
2022-08-05T08:50:13.210Z,100716.50
2022-08-05T08:52:56.885Z,100711.16
2022-08-05T08:56:03.041Z,100690.75
2022-08-05T08:58:15.537Z,100676.06
2022-08-05T09:00:44.481Z,100681.34
2022-08-05T09:03:16.143Z,100687.44
2022-08-05T09:06:07.904Z,100669.72
2022-08-05T09:08:35.764Z,100672.09
2022-08-05T09:11:12.094Z,100660.44
2022-08-05T09:14:09.312Z,100653.09
2022-08-05T09:16:31.065Z,100646.22
2022-08-05T09:18:59.287Z,100634.16
2022-08-05T09:22:22.533Z,100629.19
2022-08-05T09:24:16.468Z,100637.06
2022-08-05T09:26:51.707Z,100633.94
2022-08-05T09:29:20.002Z,100629.91
2022-08-05T09:32:41.142Z,100627.31
2022-08-05T09:34:56.182Z,100626.53
2022-08-05T09:38:12.055Z,100637.94
2022-08-05T09:40:30.006Z,100640.56
2022-08-05T09:43:02.249Z,100641.31
2022-08-05T09:46:07.853Z,100637.06
2022-08-05T09:48:33.251Z,100616.47
2022-08-05T09:51:14.987Z,100614.78
2022-08-05T09:53:53.697Z,100612.50
2022-08-05T09:56:27.699Z,100606.00
2022-08-05T09:59:04.121Z,100599.91
2022-08-05T10:01:34.458Z,100599.25
2022-08-05T10:04:13.820Z,100595.63
2022-08-05T10:06:59.400Z,100599.41
2022-08-05T10:09:29.444Z,100598.78
2022-08-05T10:12:30.604Z,100604.50
2022-08-05T10:15:20.916Z,100608.81
2022-08-05T10:18:35.554Z,100625.00
2022-08-05T10:21:08.486Z,100654.72
2022-08-05T10:24:00.055Z,100689.44
2022-08-05T10:26:31.609Z,100690.78
2022-08-05T10:29:00.851Z,100697.13
2022-08-05T10:32:52.564Z,100704.53
2022-08-05T10:34:16.989Z,100673.59
2022-08-05T10:36:45.806Z,100679.38
2022-08-05T10:40:04.134Z,100686.91
2022-08-05T10:42:18.484Z,100730.13
2022-08-05T10:44:54.460Z,100787.94
2022-08-05T10:47:32.324Z,100793.47
2022-08-05T10:50:31.873Z,100785.13
2022-08-05T10:52:58.624Z,100805.16
2022-08-05T10:55:27.831Z,100825.56
2022-08-05T10:58:15.570Z,100827.22
2022-08-05T11:00:48.457Z,100825.97
2022-08-05T11:03:26.979Z,100805.47
2022-08-05T11:06:16.252Z,100796.72
2022-08-05T11:09:32.115Z,100790.78
2022-08-05T11:12:42.281Z,100779.25
2022-08-05T11:15:19.976Z,100779.03
2022-08-05T11:18:07.473Z,100772.22
2022-08-05T11:20:46.411Z,100770.50
2022-08-05T11:24:05.750Z,100766.97
2022-08-05T11:26:35.305Z,100768.56
2022-08-05T11:29:11.879Z,100765.88
2022-08-05T11:31:58.293Z,100762.97
2022-08-05T11:34:37.977Z,100740.75
2022-08-05T11:38:29.105Z,100749.03
2022-08-05T11:40:00.224Z,100751.84
2022-08-05T11:42:40.269Z,100748.81
2022-08-05T11:45:23.366Z,100753.38
2022-08-05T11:47:57.944Z,100761.06
2022-08-05T11:50:26.510Z,100762.88
2022-08-05T11:52:58.023Z,100772.47
2022-08-05T11:55:32.224Z,100772.66
2022-08-05T11:58:10.289Z,100761.81
2022-08-05T12:00:41.524Z,100777.09
2022-08-05T12:03:28.570Z,100778.44
2022-08-05T12:06:03.098Z,100777.09
2022-08-05T12:08:39.850Z,100784.72
2022-08-05T12:11:20.747Z,100801.34
2022-08-05T12:14:04.050Z,100807.34
2022-08-05T12:16:38.366Z,100807.59
2022-08-05T12:19:08.676Z,100807.44
2022-08-05T12:21:43.954Z,100807.59
2022-08-05T12:24:19.470Z,100806.31
2022-08-05T12:26:52.783Z,100805.75
2022-08-05T12:29:27.458Z,100806.53
2022-08-05T12:32:01.813Z,100805.66
2022-08-05T12:34:37.055Z,100811.94
2022-08-05T12:37:17.628Z,100817.09
2022-08-05T12:39:53.946Z,100833.09
2022-08-05T12:42:25.420Z,100841.41
2022-08-05T12:45:01.371Z,100851.34
2022-08-05T12:47:31.036Z,100852.00
2022-08-05T12:50:03.697Z,100852.25
2022-08-05T12:52:42.470Z,100841.25
2022-08-05T12:55:22.139Z,100847.09
2022-08-05T12:58:49.408Z,100841.97
2022-08-05T13:02:02.519Z,100851.06
2022-08-05T13:03:41.786Z,100846.19
2022-08-05T13:06:17.785Z,100837.81
2022-08-05T13:08:52.198Z,100833.34
2022-08-05T13:12:01.873Z,100828.81
2022-08-05T13:14:19.363Z,100824.41
2022-08-05T13:16:56.584Z,100816.03
2022-08-05T13:19:51.000Z,100825.19
2022-08-05T13:22:29.138Z,100820.16
2022-08-05T13:25:05.838Z,100822.44
2022-08-05T13:27:41.189Z,100820.94
2022-08-05T13:30:34.254Z,100815.38
2022-08-05T13:33:01.647Z,100814.38
2022-08-05T13:35:43.191Z,100803.25
2022-08-05T13:38:28.110Z,100799.72
2022-08-05T13:41:00.290Z,100778.94
2022-08-05T13:43:43.990Z,100772.19
2022-08-05T13:46:18.523Z,100764.78
2022-08-05T13:49:03.938Z,100759.88
2022-08-05T13:51:36.499Z,100754.81
2022-08-05T13:54:12.621Z,100757.53
2022-08-05T13:56:45.064Z,100762.56
2022-08-05T13:59:27.671Z,100787.22
2022-08-05T14:02:00.634Z,100793.81
2022-08-05T14:04:52.373Z,100803.09
2022-08-05T14:07:26.056Z,100843.94
2022-08-05T14:10:18.955Z,100863.31
2022-08-05T14:12:57.528Z,100879.31
2022-08-05T14:16:04.904Z,100898.84
2022-08-05T14:18:17.360Z,100897.44
2022-08-05T14:20:48.164Z,100894.84
2022-08-05T14:23:19.240Z,100886.22
2022-08-05T14:25:59.016Z,100890.25
2022-08-05T14:28:30.802Z,100885.50
2022-08-05T14:31:00.535Z,100884.47
2022-08-05T14:33:56.561Z,100872.28
2022-08-05T14:36:20.532Z,100880.97
2022-08-05T14:38:50.489Z,100872.00
2022-08-05T14:41:18.849Z,100896.69
2022-08-05T14:43:53.873Z,100900.94
2022-08-05T14:46:29.731Z,100915.38
2022-08-05T14:49:06.400Z,100923.59
2022-08-05T14:51:42.513Z,100917.13
2022-08-05T14:54:30.026Z,100910.63
2022-08-05T14:57:00.247Z,100920.53
2022-08-05T14:59:35.851Z,100902.84
2022-08-05T15:02:15.170Z,100910.91
2022-08-05T15:04:44.923Z,100885.78
2022-08-05T15:08:08.693Z,100885.19
2022-08-05T15:10:03.627Z,100874.19
2022-08-05T15:12:51.584Z,100867.91
2022-08-05T15:15:55.505Z,100868.03
2022-08-05T15:18:08.344Z,100844.63
2022-08-05T15:20:37.395Z,100828.81
2022-08-05T15:23:07.025Z,100816.69
2022-08-05T15:25:41.111Z,100820.59
2022-08-05T15:28:19.492Z,100833.78
2022-08-05T15:30:52.920Z,100841.69
2022-08-05T15:34:05.979Z,100834.22
2022-08-05T15:36:17.344Z,100831.41
2022-08-05T15:41:03.177Z,100826.19
2022-08-05T15:41:55.858Z,100819.91
2022-08-05T15:44:30.047Z,100812.66
2022-08-05T15:47:00.908Z,100806.50
2022-08-05T15:49:48.183Z,100789.66
2022-08-05T15:52:29.240Z,100774.88
2022-08-05T15:55:07.923Z,100777.34
2022-08-05T15:57:38.381Z,100791.88
2022-08-05T16:00:08.886Z,100802.09
2022-08-05T16:02:37.010Z,100801.91
2022-08-05T16:05:05.815Z,100797.47
2022-08-05T16:07:37.916Z,100808.03
2022-08-05T16:10:14.146Z,100811.66
2022-08-05T16:12:42.405Z,100804.00
2022-08-05T16:15:10.492Z,100808.22
2022-08-05T16:17:51.094Z,100819.28
2022-08-05T16:20:26.203Z,100816.78
2022-08-05T16:22:55.926Z,100828.56
2022-08-05T16:25:32.332Z,100833.53
2022-08-05T16:28:05.882Z,100833.78
2022-08-05T16:30:36.152Z,100838.06
2022-08-05T16:33:04.138Z,100833.38
2022-08-05T16:35:33.652Z,100835.03
2022-08-05T16:38:15.258Z,100838.25
2022-08-05T16:40:51.773Z,100840.41
2022-08-05T16:43:32.406Z,100838.13
2022-08-05T16:46:05.929Z,100839.97
2022-08-05T16:48:38.443Z,100834.72
2022-08-05T16:51:09.041Z,100833.19
2022-08-05T16:54:06.270Z,100839.09
2022-08-05T16:58:58.490Z,100830.94
2022-08-05T17:01:26.643Z,100834.38
2022-08-05T17:03:54.313Z,100843.44
2022-08-05T17:06:24.517Z,100843.09
2022-08-05T17:08:54.311Z,100847.47
2022-08-05T17:11:23.903Z,100856.38
2022-08-05T17:14:00.558Z,100864.88
2022-08-05T17:16:38.012Z,100867.06
2022-08-05T17:19:07.278Z,100871.84
2022-08-05T17:21:37.024Z,100877.81
2022-08-05T17:24:30.085Z,100885.03
2022-08-05T17:26:56.378Z,100882.47
2022-08-05T17:29:39.926Z,100884.63
2022-08-05T17:32:11.856Z,100893.09
2022-08-05T17:34:48.178Z,100906.84
2022-08-05T17:37:40.088Z,100906.16
2022-08-05T17:40:10.810Z,100914.75
2022-08-05T17:42:41.570Z,100901.75
2022-08-05T17:45:20.596Z,100900.91
2022-08-05T17:47:54.609Z,100899.47
2022-08-05T17:50:30.371Z,100894.94
2022-08-05T17:53:00.379Z,100906.22
2022-08-05T17:55:38.332Z,100895.22
2022-08-05T17:58:12.704Z,100895.81
2022-08-05T18:00:45.074Z,100893.81
2022-08-05T18:06:12.086Z,100903.44
2022-08-05T18:08:45.782Z,100902.72
2022-08-05T18:11:24.626Z,100896.13
2022-08-05T18:14:07.330Z,100899.19
2022-08-05T18:16:50.981Z,100907.56
2022-08-05T18:19:22.798Z,100897.81
2022-08-05T18:22:08.523Z,100896.25
2022-08-05T18:24:40.096Z,100903.19
2022-08-05T18:27:18.126Z,100905.28
2022-08-05T18:29:54.008Z,100907.25
2022-08-05T18:32:28.321Z,100901.78
2022-08-05T18:34:58.058Z,100908.16
2022-08-05T18:37:33.625Z,100901.78
2022-08-05T18:41:50.554Z,100907.47
2022-08-05T18:42:57.170Z,100915.53
2022-08-05T18:45:24.894Z,100915.06
2022-08-05T18:47:56.759Z,100921.16
2022-08-05T18:50:46.831Z,100918.78
2022-08-05T18:53:22.212Z,100919.34
2022-08-05T18:55:52.228Z,100924.59
2022-08-05T18:58:28.887Z,100930.66
2022-08-05T19:00:57.199Z,100935.44
2022-08-05T19:03:53.493Z,100938.59
2022-08-05T19:06:21.501Z,100948.94
2022-08-05T19:08:50.755Z,100947.94
2022-08-05T19:11:28.047Z,100945.25
2022-08-05T19:14:01.149Z,100955.84
2022-08-05T19:16:46.576Z,100943.28
2022-08-05T19:19:20.762Z,100933.06
2022-08-05T19:21:48.825Z,100933.81
2022-08-05T19:24:34.588Z,100939.31
2022-08-05T19:27:04.429Z,100935.38
2022-08-05T19:29:35.764Z,100935.38
2022-08-05T19:32:11.085Z,100927.88
2022-08-05T19:34:39.268Z,100938.63
2022-08-05T19:37:07.279Z,100936.66
2022-08-05T19:39:45.888Z,100940.31
2022-08-05T19:42:35.553Z,100945.38
2022-08-05T19:45:05.671Z,100934.38
2022-08-05T19:47:37.214Z,100941.59
2022-08-05T19:50:07.739Z,100935.06
2022-08-05T19:52:38.403Z,100937.63
2022-08-05T19:55:06.977Z,100935.78
2022-08-05T19:58:19.531Z,100933.09
2022-08-05T20:00:42.588Z,100940.31
2022-08-05T20:03:11.164Z,100936.50
2022-08-05T20:05:50.104Z,100936.94
2022-08-05T20:08:20.493Z,100938.03
2022-08-05T20:10:53.303Z,100940.63
2022-08-05T20:13:30.298Z,100931.84
2022-08-05T20:16:10.097Z,100930.69
2022-08-05T20:18:38.591Z,100927.03
2022-08-05T20:21:07.273Z,100931.84
2022-08-05T20:23:39.432Z,100934.53
2022-08-05T20:26:18.758Z,100931.00
2022-08-05T20:28:48.892Z,100940.06
2022-08-05T20:31:18.018Z,100935.38
2022-08-05T20:33:50.448Z,100934.69
2022-08-05T20:36:19.135Z,100932.00
2022-08-05T20:38:53.335Z,100930.72
2022-08-05T20:41:23.866Z,100930.72
2022-08-05T20:43:58.729Z,100925.34
2022-08-05T20:46:29.611Z,100929.00
2022-08-05T20:48:57.172Z,100931.00
2022-08-05T20:51:24.790Z,100925.31
2022-08-05T20:53:55.087Z,100931.28
2022-08-05T20:56:31.856Z,100919.69
2022-08-05T20:59:14.217Z,100923.63
2022-08-05T21:01:52.126Z,100915.44
2022-08-05T21:04:19.827Z,100910.06
2022-08-05T21:06:47.463Z,100912.59
2022-08-05T21:09:16.052Z,100910.63
2022-08-05T21:12:09.788Z,100909.06
2022-08-05T21:14:34.760Z,100909.91
2022-08-05T21:17:05.383Z,100906.66
2022-08-05T21:19:46.955Z,100904.41
2022-08-05T21:22:23.112Z,100896.34
2022-08-05T21:24:54.370Z,100901.31
2022-08-05T21:27:27.119Z,100897.06
2022-08-05T21:29:56.493Z,100896.47
2022-08-05T21:32:27.156Z,100908.78
2022-08-05T21:35:16.889Z,100901.72
2022-08-05T21:37:47.601Z,100899.34
2022-08-05T21:40:23.298Z,100902.16
2022-08-05T21:42:54.384Z,100901.31
2022-08-05T21:45:51.830Z,100903.28
2022-08-05T21:48:14.586Z,100900.34
2022-08-05T21:50:54.349Z,100896.78
2022-08-05T21:53:24.861Z,100895.06
2022-08-05T21:56:06.237Z,100895.22
2022-08-05T21:58:56.992Z,100896.06
2022-08-05T22:01:26.537Z,100891.28
2022-08-05T22:03:54.375Z,100888.75
2022-08-05T22:06:35.159Z,100883.50
2022-08-05T22:09:13.082Z,100891.69
2022-08-05T22:11:42.612Z,100885.31
2022-08-05T22:14:33.030Z,100885.22
2022-08-05T22:17:04.991Z,100890.00
2022-08-05T22:20:02.125Z,100898.22
2022-08-05T22:22:27.577Z,100891.53
2022-08-05T22:25:18.263Z,100894.22
2022-08-05T22:28:08.359Z,100894.22
2022-08-05T22:30:56.725Z,100894.97
2022-08-05T22:33:57.025Z,100890.84
2022-08-05T22:36:15.816Z,100893.38
2022-08-05T22:38:48.284Z,100889.97
2022-08-05T22:42:05.143Z,100900.03
2022-08-05T22:44:08.741Z,100894.25
2022-08-05T22:46:39.799Z,100896.78
2022-08-05T22:50:18.061Z,100897.91
2022-08-05T22:52:04.364Z,100902.28
2022-08-05T22:54:32.968Z,100890.84
2022-08-05T22:57:00.772Z,100896.38
2022-08-05T22:59:43.582Z,100884.78
2022-08-05T23:02:22.362Z,100891.53
2022-08-05T23:04:57.736Z,100882.94
2022-08-05T23:07:25.377Z,100887.00
2022-08-05T23:10:01.262Z,100882.22
2022-08-05T23:12:33.302Z,100880.22
2022-08-05T23:15:08.925Z,100888.03
2022-08-05T23:18:02.348Z,100879.13
2022-08-05T23:20:25.207Z,100877.25
2022-08-05T23:22:55.926Z,100880.78
2022-08-05T23:25:53.411Z,100874.72
2022-08-05T23:28:12.228Z,100876.97
2022-08-05T23:30:43.728Z,100871.44
2022-08-05T23:33:25.674Z,100874.13
2022-08-05T23:35:55.130Z,100871.03
2022-08-05T23:38:26.700Z,100864.38
2022-08-05T23:40:56.199Z,100865.69
2022-08-05T23:43:49.652Z,100867.78
2022-08-05T23:46:19.566Z,100864.84
2022-08-05T23:49:00.325Z,100870.31
2022-08-05T23:51:54.908Z,100868.91
2022-08-05T23:54:26.109Z,100876.97
2022-08-05T23:57:03.863Z,100872.59
